Santa Rita — DIOY2 — position and weather

sailwx.info

Track history (hours):
 
Tides and Currents Weather Stations Pressure Air Temp Water Temp Dewpoint Dewpoint Depression Visibility Wind Speed Wind Dir Waves Ship Positions

Santa Rita

Last reported at 2017-Feb-08 13:25 UTC. Time now 2017-Feb-28 17:19 UTC.
Position S 32°53' W 072°04'.
Warning: this ship's position is 20 days out of date.

Length 300 m; draft 12.7 m.

Type: Ship (hazmat cat A). MMSI: 218670000.

Date/timePositionNaut miles runAvg speedWind from/ knotsBaromVisibWave heightAir tempDewpointWater temp
2017-Feb-08 13:25S 32°53' W 072°04'1518.1
2017-Feb-08 12:33S 32°56' W 071°46'10 9.8
2017-Feb-08 11:33S 33°02' W 071°37'0 0.5
2017-Feb-08 10:33S 33°02' W 071°38'0 0.0
2017-Feb-08 09:26S 33°02' W 071°38'0 0.0
2017-Feb-08 08:20S 33°02' W 071°38'0 0.0
2017-Feb-08 07:32S 33°02' W 071°38'0 0.0
2017-Feb-08 06:32S 33°02' W 071°38'0 0.0
2017-Feb-08 05:20S 33°02' W 071°38'0 0.0
2017-Feb-08 04:14S 33°02' W 071°38'0 0.0
2017-Feb-08 03:26S 33°02' W 071°38'0 0.0
2017-Feb-08 00:05S 33°02' W 071°38'0 0.0
2017-Feb-07 23:32S 33°02' W 071°38'0 0.0
2017-Feb-07 22:32S 33°02' W 071°38'0 0.0
2017-Feb-07 21:26S 33°02' W 071°38'0 0.0
2017-Feb-07 20:32S 33°02' W 071°38'0 0.0
2017-Feb-07 19:32S 33°02' W 071°38'0 0.0
2017-Feb-07 18:32S 33°02' W 071°38'0 0.0
2017-Feb-07 17:32S 33°02' W 071°38'0 0.0
2017-Feb-07 16:29S 33°02' W 071°38'0 0.0
2017-Feb-07 15:32S 33°02' W 071°38'0 0.0
2017-Feb-07 14:32S 33°02' W 071°38'0 0.0
2017-Feb-07 13:32S 33°02' W 071°38'0 0.0
2017-Feb-07 12:32S 33°02' W 071°38'0 0.0
2017-Feb-07 11:32S 33°02' W 071°38'0 0.0
2017-Feb-07 10:32S 33°02' W 071°38'0 0.0
2017-Feb-07 09:08S 33°02' W 071°38'0 0.0
2017-Feb-07 07:08S 33°02' W 071°38'0 0.0
2017-Feb-07 06:32S 33°02' W 071°38'0 0.0
2017-Feb-07 02:26S 33°02' W 071°38'0 0.0
2017-Feb-06 23:32S 33°02' W 071°38'0 0.0
2017-Feb-06 22:32S 33°02' W 071°38'0 0.0
2017-Feb-06 21:32S 33°02' W 071°38'0 0.0
2017-Feb-06 20:29S 33°02' W 071°38'0 0.0
2017-Feb-06 19:29S 33°02' W 071°38'0 0.0
2017-Feb-06 18:32S 33°02' W 071°38'0 0.0
2017-Feb-06 17:32S 33°02' W 071°38'0 0.0
2017-Feb-06 16:32S 33°02' W 071°38'0 0.0
2017-Feb-06 15:32S 33°02' W 071°38'0 0.0
2017-Feb-06 14:32S 33°02' W 071°38'0 0.0
2017-Feb-06 13:32S 33°02' W 071°38'0 0.0
2017-Feb-06 12:32S 33°02' W 071°38'2 1.8
2017-Feb-06 11:22S 32°60' W 071°37'4 5.0
2017-Feb-06 10:33S 32°56' W 071°38'2 2.2
2017-Feb-06 09:33S 32°55' W 071°41'2 2.3
2017-Feb-06 08:33S 32°57' W 071°38'1313.5
2017-Feb-06 07:33S 32°43' W 071°41'  
Track history (hours):
 
Tides and Currents Weather Stations Pressure Air Temp Water Temp Dewpoint Dewpoint Depression Visibility Wind Speed Wind Dir Waves Ship Positions

Santa Rita

Last reported at 2017-Feb-08 13:25 UTC. Time now 2017-Feb-28 17:19 UTC.
Position S 32°53' W 072°04'.
Warning: this ship's position is 20 days out of date.

Length 300 m; draft 12.7 m.

Type: Ship (hazmat cat A). MMSI: 218670000.

Date/timePositionNaut miles runAvg speedWind from/ knotsBaromVisibWave heightAir tempDewpointWater temp
2017-Feb-08 13:25S 32°53' W 072°04'1518.1
2017-Feb-08 12:33S 32°56' W 071°46'10 9.8
2017-Feb-08 11:33S 33°02' W 071°37'0 0.5
2017-Feb-08 10:33S 33°02' W 071°38'0 0.0
2017-Feb-08 09:26S 33°02' W 071°38'0 0.0
2017-Feb-08 08:20S 33°02' W 071°38'0 0.0
2017-Feb-08 07:32S 33°02' W 071°38'0 0.0
2017-Feb-08 06:32S 33°02' W 071°38'0 0.0
2017-Feb-08 05:20S 33°02' W 071°38'0 0.0
2017-Feb-08 04:14S 33°02' W 071°38'0 0.0
2017-Feb-08 03:26S 33°02' W 071°38'0 0.0
2017-Feb-08 00:05S 33°02' W 071°38'0 0.0
2017-Feb-07 23:32S 33°02' W 071°38'0 0.0
2017-Feb-07 22:32S 33°02' W 071°38'0 0.0
2017-Feb-07 21:26S 33°02' W 071°38'0 0.0
2017-Feb-07 20:32S 33°02' W 071°38'0 0.0
2017-Feb-07 19:32S 33°02' W 071°38'0 0.0
2017-Feb-07 18:32S 33°02' W 071°38'0 0.0
2017-Feb-07 17:32S 33°02' W 071°38'0 0.0
2017-Feb-07 16:29S 33°02' W 071°38'0 0.0
2017-Feb-07 15:32S 33°02' W 071°38'0 0.0
2017-Feb-07 14:32S 33°02' W 071°38'0 0.0
2017-Feb-07 13:32S 33°02' W 071°38'0 0.0
2017-Feb-07 12:32S 33°02' W 071°38'0 0.0
2017-Feb-07 11:32S 33°02' W 071°38'0 0.0
2017-Feb-07 10:32S 33°02' W 071°38'0 0.0
2017-Feb-07 09:08S 33°02' W 071°38'0 0.0
2017-Feb-07 07:08S 33°02' W 071°38'0 0.0
2017-Feb-07 06:32S 33°02' W 071°38'0 0.0
2017-Feb-07 02:26S 33°02' W 071°38'0 0.0
2017-Feb-06 23:32S 33°02' W 071°38'0 0.0
2017-Feb-06 22:32S 33°02' W 071°38'0 0.0
2017-Feb-06 21:32S 33°02' W 071°38'0 0.0
2017-Feb-06 20:29S 33°02' W 071°38'0 0.0
2017-Feb-06 19:29S 33°02' W 071°38'0 0.0
2017-Feb-06 18:32S 33°02' W 071°38'0 0.0
2017-Feb-06 17:32S 33°02' W 071°38'0 0.0
2017-Feb-06 16:32S 33°02' W 071°38'0 0.0
2017-Feb-06 15:32S 33°02' W 071°38'0 0.0
2017-Feb-06 14:32S 33°02' W 071°38'0 0.0
2017-Feb-06 13:32S 33°02' W 071°38'0 0.0
2017-Feb-06 12:32S 33°02' W 071°38'2 1.8
2017-Feb-06 11:22S 32°60' W 071°37'4 5.0
2017-Feb-06 10:33S 32°56' W 071°38'2 2.2
2017-Feb-06 09:33S 32°55' W 071°41'2 2.3
2017-Feb-06 08:33S 32°57' W 071°38'1313.5
2017-Feb-06 07:33S 32°43' W 071°41'  

Dump ship's entire track history